Terminal Aerodrome Forecast
Issued by NWS Portland, OR

Home | Current Version | Previous Version | Text Only | Print | Product List | Glossary On
Versions: 1 2 3 4 5 6 7 8 9 10 11 12 13
000
FTUS46 KPQR 300524
TAFSLE
TAF
KSLE 300524Z 3006/0106 30005KT P6SM SCT050
     FM301000 36004KT P6SM BKN020
     FM301900 36008KT P6SM SCT040=

USA.gov is the U.S. government's official web portal to all federal, state and local government web resources and services.